createdAt,value
2023-03-20T00:02:23.684Z,78.33
2023-03-20T00:04:52.469Z,78.69
2023-03-20T00:07:21.139Z,78.79
2023-03-20T00:09:49.864Z,78.89
2023-03-20T00:12:24.297Z,78.76
2023-03-20T00:14:52.916Z,78.79
2023-03-20T00:17:21.560Z,78.11
2023-03-20T00:19:50.158Z,78.35
2023-03-20T00:22:18.484Z,78.46
2023-03-20T00:24:46.953Z,78.59
2023-03-20T00:27:18.015Z,78.53
2023-03-20T00:29:46.852Z,78.72
2023-03-20T00:32:15.904Z,79.42
2023-03-20T00:34:44.458Z,79.11
2023-03-20T00:37:14.784Z,79.52
2023-03-20T00:39:43.213Z,79.46
2023-03-20T00:42:20.900Z,79.57
2023-03-20T00:44:55.983Z,79.69
2023-03-20T00:47:27.512Z,79.71
2023-03-20T00:49:56.337Z,80.03
2023-03-20T00:52:25.211Z,79.41
2023-03-20T00:54:53.678Z,79.44
2023-03-20T00:57:24.246Z,79.60
2023-03-20T01:00:07.005Z,79.50
2023-03-20T01:02:35.438Z,79.96
2023-03-20T01:05:05.869Z,79.76
2023-03-20T01:07:34.338Z,80.08
2023-03-20T01:10:05.993Z,80.21
2023-03-20T01:12:34.404Z,80.37
2023-03-20T01:15:02.752Z,80.52
2023-03-20T01:17:31.434Z,80.86
2023-03-20T01:19:59.922Z,80.66
2023-03-20T01:22:28.912Z,80.74
2023-03-20T01:24:57.394Z,80.84
2023-03-20T01:27:26.002Z,81.33
2023-03-20T01:29:54.667Z,81.01
2023-03-20T01:32:23.110Z,81.03
2023-03-20T01:34:53.463Z,81.08
2023-03-20T01:37:26.894Z,80.66
2023-03-20T01:39:57.926Z,80.67
2023-03-20T01:42:26.536Z,80.32
2023-03-20T01:44:55.010Z,80.05
2023-03-20T01:47:25.115Z,80.13
2023-03-20T01:50:24.477Z,80.05
2023-03-20T01:53:22.799Z,79.97
2023-03-20T01:55:58.936Z,80.12
2023-03-20T01:58:36.324Z,79.89
2023-03-20T02:01:06.714Z,79.98
2023-03-20T02:03:35.538Z,79.80
2023-03-20T02:06:24.088Z,80.15
2023-03-20T02:09:14.313Z,80.34
2023-03-20T02:11:45.741Z,79.88
2023-03-20T02:14:14.492Z,80.07
2023-03-20T02:16:51.316Z,80.11
2023-03-20T02:20:15.000Z,80.26
2023-03-20T02:23:11.193Z,80.31
2023-03-20T02:26:00.768Z,80.31
2023-03-20T02:28:38.231Z,80.75
2023-03-20T02:31:29.165Z,80.50
2023-03-20T02:34:07.997Z,80.78
2023-03-20T02:36:48.654Z,81.09
2023-03-20T02:39:47.932Z,80.92
2023-03-20T02:42:48.050Z,80.82
2023-03-20T02:45:38.255Z,80.53
2023-03-20T02:48:38.326Z,80.89
2023-03-20T02:51:19.374Z,81.19
2023-03-20T02:54:20.559Z,81.08
2023-03-20T02:56:59.936Z,81.12
2023-03-20T03:00:10.053Z,81.68
2023-03-20T03:02:53.472Z,82.02
2023-03-20T03:05:31.342Z,81.95
2023-03-20T03:08:01.038Z,82.22
2023-03-20T03:10:40.766Z,82.78
2023-03-20T03:13:15.756Z,82.66
2023-03-20T03:15:47.845Z,83.11
2023-03-20T03:18:20.963Z,83.05
2023-03-20T03:20:52.760Z,83.16
2023-03-20T03:23:30.390Z,83.04
2023-03-20T03:26:01.407Z,82.97
2023-03-20T03:28:39.310Z,82.51
2023-03-20T03:31:12.490Z,82.62
2023-03-20T03:33:43.850Z,82.99
2023-03-20T03:36:58.991Z,82.98
2023-03-20T03:39:55.943Z,83.16
2023-03-20T03:42:31.497Z,83.22
2023-03-20T03:45:10.728Z,83.15
2023-03-20T03:47:45.482Z,83.26
2023-03-20T03:50:19.196Z,83.52
2023-03-20T03:52:49.736Z,83.84
2023-03-20T03:55:30.149Z,83.62
2023-03-20T03:58:22.684Z,83.62
2023-03-20T04:00:53.021Z,83.70
2023-03-20T04:03:24.717Z,83.54
2023-03-20T04:05:56.393Z,83.62
2023-03-20T04:08:24.800Z,83.66
2023-03-20T04:10:53.432Z,83.67
2023-03-20T04:13:21.939Z,83.81
2023-03-20T04:15:50.569Z,82.99
2023-03-20T04:18:19.746Z,83.00
2023-03-20T04:20:49.471Z,82.91
2023-03-20T04:23:18.457Z,82.66
2023-03-20T04:25:46.817Z,82.26
2023-03-20T04:28:16.813Z,82.01
2023-03-20T04:30:59.252Z,82.02
2023-03-20T04:33:50.776Z,82.12
2023-03-20T04:36:43.709Z,82.66
2023-03-20T04:39:14.908Z,82.78
2023-03-20T04:41:43.456Z,82.89
2023-03-20T04:44:12.487Z,82.79
2023-03-20T04:46:43.087Z,82.84
2023-03-20T04:49:16.898Z,83.17
2023-03-20T04:51:45.603Z,83.37
2023-03-20T04:54:15.740Z,82.99
2023-03-20T04:56:45.422Z,82.89
2023-03-20T04:59:17.262Z,82.85
2023-03-20T05:01:45.896Z,82.86
2023-03-20T05:04:14.445Z,82.87
2023-03-20T05:06:44.268Z,82.61
2023-03-20T05:09:12.739Z,82.61
2023-03-20T05:11:41.709Z,82.56
2023-03-20T05:14:16.984Z,82.69
2023-03-20T05:17:14.346Z,82.70
2023-03-20T05:20:00.261Z,82.56
2023-03-20T05:22:40.325Z,82.42
2023-03-20T05:25:17.181Z,82.51
2023-03-20T05:28:11.717Z,82.41
2023-03-20T05:31:05.219Z,82.20
2023-03-20T05:33:52.606Z,82.48
2023-03-20T05:36:54.188Z,82.19
2023-03-20T05:39:41.683Z,81.98
2023-03-20T05:42:30.256Z,81.82
2023-03-20T05:45:30.858Z,81.89
2023-03-20T05:48:17.873Z,81.79
2023-03-20T05:50:56.155Z,81.89
2023-03-20T05:53:38.634Z,82.21
2023-03-20T05:56:25.000Z,82.19
2023-03-20T05:59:21.283Z,81.89
2023-03-20T06:02:08.103Z,81.63
2023-03-20T06:04:37.848Z,81.47
2023-03-20T06:07:21.871Z,81.60
2023-03-20T06:09:58.093Z,81.71
2023-03-20T06:12:27.438Z,81.27
2023-03-20T06:14:56.873Z,81.09
2023-03-20T06:17:25.674Z,81.11
2023-03-20T06:19:59.610Z,80.89
2023-03-20T06:22:27.956Z,80.42
2023-03-20T06:24:57.498Z,80.34
2023-03-20T06:27:32.060Z,80.41
2023-03-20T06:30:01.317Z,80.16
2023-03-20T06:32:34.115Z,80.22
2023-03-20T06:35:06.064Z,80.09
2023-03-20T06:37:35.015Z,79.73
2023-03-20T06:40:08.941Z,79.88
2023-03-20T06:42:37.933Z,79.84
2023-03-20T06:45:08.308Z,79.27
2023-03-20T06:47:58.443Z,79.05
2023-03-20T06:50:27.392Z,78.32
2023-03-20T06:53:02.024Z,78.22
2023-03-20T06:55:56.347Z,77.94
2023-03-20T06:58:27.553Z,77.39
2023-03-20T07:00:56.746Z,76.89
2023-03-20T07:03:25.524Z,76.55
2023-03-20T07:05:58.728Z,76.24
2023-03-20T07:08:27.397Z,76.11
2023-03-20T07:10:56.845Z,75.74
2023-03-20T07:13:26.900Z,76.01
2023-03-20T07:16:04.160Z,76.30
2023-03-20T07:18:38.196Z,75.97
2023-03-20T07:21:08.101Z,75.96
2023-03-20T07:23:36.696Z,75.94
2023-03-20T07:26:07.035Z,75.98
2023-03-20T07:28:36.221Z,75.72
2023-03-20T07:31:23.713Z,75.76
2023-03-20T07:33:56.117Z,75.42
2023-03-20T07:36:25.181Z,75.24
2023-03-20T07:38:54.328Z,74.97
2023-03-20T07:41:22.823Z,74.70
2023-03-20T07:43:59.753Z,75.05
2023-03-20T07:46:52.689Z,74.99
2023-03-20T07:49:22.849Z,75.02
2023-03-20T07:51:51.999Z,75.00
2023-03-20T07:54:21.025Z,74.59
2023-03-20T07:56:51.135Z,74.94
2023-03-20T07:59:21.267Z,75.14
2023-03-20T08:01:49.797Z,74.72
2023-03-20T08:04:22.814Z,74.76
2023-03-20T08:06:51.930Z,74.49
2023-03-20T08:09:20.718Z,74.97
2023-03-20T08:11:49.134Z,74.73
2023-03-20T08:14:17.704Z,74.20
2023-03-20T08:16:46.286Z,73.33
2023-03-20T08:19:17.155Z,72.97
2023-03-20T08:21:45.885Z,72.65
2023-03-20T08:24:14.405Z,72.39
2023-03-20T08:26:44.410Z,72.14
2023-03-20T08:29:13.190Z,72.08
2023-03-20T08:31:41.648Z,71.59
2023-03-20T08:34:10.689Z,71.57
2023-03-20T08:36:40.169Z,71.28
2023-03-20T08:39:08.791Z,70.89
2023-03-20T08:41:39.288Z,71.00
2023-03-20T08:44:08.341Z,70.61
2023-03-20T08:46:37.331Z,70.22
2023-03-20T08:49:06.483Z,70.25
2023-03-20T08:51:38.686Z,70.42
2023-03-20T08:54:09.158Z,70.73
2023-03-20T08:56:38.041Z,70.56
2023-03-20T08:59:08.030Z,70.59
2023-03-20T09:01:48.639Z,70.45
2023-03-20T09:04:18.678Z,69.94
2023-03-20T09:07:03.509Z,69.69
2023-03-20T09:09:32.689Z,69.62
2023-03-20T09:12:01.622Z,69.21
2023-03-20T09:14:30.915Z,69.35
2023-03-20T09:16:59.302Z,69.22
2023-03-20T09:19:29.301Z,69.21
2023-03-20T09:21:58.583Z,69.09
2023-03-20T09:24:27.151Z,68.68
2023-03-20T09:26:55.981Z,68.64
2023-03-20T09:29:24.728Z,68.08
2023-03-20T09:31:56.413Z,68.06
2023-03-20T09:34:27.879Z,67.13
2023-03-20T09:36:57.093Z,66.96
2023-03-20T09:39:25.719Z,66.76
2023-03-20T09:41:57.517Z,66.69
2023-03-20T09:44:54.651Z,65.79
2023-03-20T09:47:46.091Z,65.81
2023-03-20T09:50:31.341Z,65.48
2023-03-20T09:53:07.389Z,65.35
2023-03-20T09:55:44.527Z,65.37
2023-03-20T09:58:22.703Z,64.89
2023-03-20T10:00:51.187Z,64.20
2023-03-20T10:03:25.377Z,63.96
2023-03-20T10:06:03.454Z,63.71
2023-03-20T10:08:37.984Z,63.43
2023-03-20T10:11:32.622Z,62.97
2023-03-20T10:14:22.839Z,63.16
2023-03-20T10:17:22.075Z,62.75
2023-03-20T10:20:13.849Z,62.75
2023-03-20T10:23:13.968Z,62.39
2023-03-20T10:25:54.589Z,62.06
2023-03-20T10:28:52.175Z,62.33
2023-03-20T10:31:48.231Z,61.78
2023-03-20T10:34:19.404Z,61.67
2023-03-20T10:36:51.082Z,62.03
2023-03-20T10:39:52.185Z,61.79
2023-03-20T10:42:28.321Z,61.29
2023-03-20T10:45:08.674Z,61.60
2023-03-20T10:47:42.002Z,61.89
2023-03-20T10:50:37.947Z,61.34
2023-03-20T10:53:16.617Z,61.94
2023-03-20T10:55:45.908Z,61.82
2023-03-20T10:58:22.104Z,61.73
2023-03-20T11:00:52.097Z,61.72
2023-03-20T11:03:33.592Z,60.98
2023-03-20T11:06:10.244Z,60.68
2023-03-20T11:08:43.833Z,60.55
2023-03-20T11:11:12.594Z,60.33
2023-03-20T11:13:45.256Z,60.14
2023-03-20T11:16:21.795Z,60.15
2023-03-20T11:18:52.687Z,60.28
2023-03-20T11:21:29.453Z,60.56
2023-03-20T11:23:58.160Z,59.98
2023-03-20T11:26:38.119Z,59.99
2023-03-20T11:29:21.994Z,59.55
2023-03-20T11:31:51.786Z,59.96
2023-03-20T11:34:26.525Z,59.26
2023-03-20T11:37:09.329Z,59.62
2023-03-20T11:39:40.356Z,59.77
2023-03-20T11:42:26.260Z,60.07
2023-03-20T11:45:00.149Z,59.60
2023-03-20T11:47:32.834Z,59.30
2023-03-20T11:50:04.717Z,59.06
2023-03-20T11:52:36.901Z,59.16
2023-03-20T11:55:20.051Z,59.09
2023-03-20T11:57:49.329Z,58.85
2023-03-20T12:00:26.227Z,59.03
2023-03-20T12:02:54.714Z,58.44
2023-03-20T12:05:37.863Z,58.58
2023-03-20T12:08:23.365Z,59.01
2023-03-20T12:11:00.133Z,58.41
2023-03-20T12:13:44.489Z,57.45
2023-03-20T12:16:15.784Z,57.88
2023-03-20T12:18:51.980Z,57.96
2023-03-20T12:21:34.320Z,57.58
2023-03-20T12:24:05.345Z,57.39
2023-03-20T12:26:53.416Z,57.09
2023-03-20T12:29:32.442Z,56.57
2023-03-20T12:32:09.898Z,56.85
2023-03-20T12:34:42.649Z,56.74
2023-03-20T12:37:14.634Z,56.00
2023-03-20T12:39:53.025Z,56.42
2023-03-20T12:42:24.624Z,55.97
2023-03-20T12:45:09.562Z,56.26
2023-03-20T12:47:56.381Z,55.98
2023-03-20T12:50:29.388Z,55.75
2023-03-20T12:53:10.224Z,55.13
2023-03-20T12:55:53.707Z,54.93
2023-03-20T12:58:45.800Z,54.96
2023-03-20T13:01:41.852Z,54.67
2023-03-20T13:04:22.274Z,53.96
2023-03-20T13:06:56.625Z,53.94
2023-03-20T13:09:41.988Z,53.41
2023-03-20T13:12:35.990Z,54.11
2023-03-20T13:15:33.441Z,53.00
2023-03-20T13:18:26.715Z,52.70
2023-03-20T13:21:00.428Z,52.02
2023-03-20T13:23:43.026Z,52.00
2023-03-20T13:26:26.717Z,52.71
2023-03-20T13:29:15.852Z,52.99
2023-03-20T13:32:09.190Z,52.80
2023-03-20T13:35:18.272Z,52.48
2023-03-20T13:38:00.814Z,51.96
2023-03-20T13:40:35.908Z,51.33
2023-03-20T13:43:20.218Z,50.80
2023-03-20T13:45:52.442Z,49.82
2023-03-20T13:48:30.238Z,49.81
2023-03-20T13:51:10.224Z,49.53
2023-03-20T13:54:16.747Z,49.90
2023-03-20T13:57:23.056Z,49.93
2023-03-20T14:00:07.009Z,49.26
2023-03-20T14:03:07.855Z,49.59
2023-03-20T14:05:41.354Z,49.62
2023-03-20T14:08:28.192Z,50.46
2023-03-20T14:11:08.126Z,49.98
2023-03-20T14:13:39.191Z,50.66
2023-03-20T14:16:09.422Z,50.67
2023-03-20T14:18:38.618Z,50.77
2023-03-20T14:21:13.915Z,50.83
2023-03-20T14:23:50.868Z,51.08
2023-03-20T14:26:30.209Z,51.50
2023-03-20T14:29:19.416Z,51.73
2023-03-20T14:31:52.485Z,52.37
2023-03-20T14:34:24.935Z,53.05
2023-03-20T14:37:00.934Z,53.09
2023-03-20T14:39:48.739Z,53.38
2023-03-20T14:42:53.687Z,53.74
2023-03-20T14:45:45.108Z,54.51
2023-03-20T14:48:26.965Z,54.50
2023-03-20T14:51:32.921Z,54.91
2023-03-20T14:54:30.181Z,54.84
2023-03-20T14:57:10.745Z,55.21
2023-03-20T14:59:39.322Z,55.33
2023-03-20T15:02:29.188Z,55.70
2023-03-20T15:04:57.884Z,56.00
2023-03-20T15:07:29.350Z,56.33
2023-03-20T15:10:00.556Z,56.84
2023-03-20T15:12:36.336Z,57.08
2023-03-20T15:15:23.076Z,57.08
2023-03-20T15:17:51.493Z,57.60
2023-03-20T15:20:23.561Z,57.89
2023-03-20T15:22:51.926Z,58.08
2023-03-20T15:25:22.213Z,58.13
2023-03-20T15:27:52.197Z,58.43
2023-03-20T15:30:22.422Z,58.89
2023-03-20T15:32:55.608Z,59.01
2023-03-20T15:35:26.355Z,59.30
2023-03-20T15:37:59.786Z,59.41
2023-03-20T15:40:47.363Z,59.71
2023-03-20T15:43:24.491Z,59.91
2023-03-20T15:46:14.186Z,60.09
2023-03-20T15:48:49.169Z,60.42
2023-03-20T15:51:19.173Z,60.62
2023-03-20T15:53:48.889Z,61.01
2023-03-20T15:56:19.897Z,61.42
2023-03-20T15:58:52.650Z,61.37
2023-03-20T16:01:24.007Z,61.84
2023-03-20T16:03:57.139Z,62.09
2023-03-20T16:06:25.894Z,62.21
2023-03-20T16:09:14.818Z,62.43
2023-03-20T16:11:45.957Z,62.87
2023-03-20T16:14:22.467Z,63.28
2023-03-20T16:16:52.772Z,63.25
2023-03-20T16:19:21.490Z,63.60
2023-03-20T16:21:53.754Z,63.86
2023-03-20T16:24:27.317Z,64.16
2023-03-20T16:26:57.575Z,64.39
2023-03-20T16:29:27.669Z,64.61
2023-03-20T16:32:07.959Z,64.99
2023-03-20T16:34:38.147Z,65.17
2023-03-20T16:37:20.989Z,65.60
2023-03-20T16:40:17.112Z,65.61
2023-03-20T16:42:46.153Z,66.02
2023-03-20T16:45:28.858Z,66.28
2023-03-20T16:48:17.450Z,66.36
2023-03-20T16:50:48.589Z,66.72
2023-03-20T16:53:20.486Z,67.06
2023-03-20T16:55:50.710Z,66.81
2023-03-20T16:58:23.433Z,67.15
2023-03-20T17:01:10.364Z,67.37
2023-03-20T17:03:40.318Z,67.57
2023-03-20T17:06:24.043Z,67.69
2023-03-20T17:08:53.631Z,67.86
2023-03-20T17:11:36.182Z,68.15
2023-03-20T17:14:07.107Z,68.32
2023-03-20T17:16:36.882Z,68.27
2023-03-20T17:19:14.967Z,68.25
2023-03-20T17:21:45.310Z,68.15
2023-03-20T17:24:14.884Z,68.24
2023-03-20T17:26:45.957Z,68.43
2023-03-20T17:29:14.797Z,68.20
2023-03-20T17:31:43.538Z,68.41
2023-03-20T17:34:14.279Z,68.77
2023-03-20T17:36:42.892Z,68.74
2023-03-20T17:39:17.868Z,68.67
2023-03-20T17:41:47.667Z,68.60
2023-03-20T17:44:16.099Z,68.80
2023-03-20T17:46:57.100Z,68.77
2023-03-20T17:49:29.765Z,68.54
2023-03-20T17:51:58.419Z,68.59
2023-03-20T17:54:27.032Z,68.91
2023-03-20T17:56:55.570Z,68.81
2023-03-20T17:59:28.901Z,69.19
2023-03-20T18:01:57.653Z,69.13
2023-03-20T18:04:27.219Z,69.61
2023-03-20T18:06:55.673Z,69.65
2023-03-20T18:09:26.070Z,69.64
2023-03-20T18:11:54.682Z,69.82
2023-03-20T18:14:23.550Z,69.97
2023-03-20T18:16:52.124Z,69.89
2023-03-20T18:19:29.403Z,69.82
2023-03-20T18:21:58.226Z,70.10
2023-03-20T18:24:27.755Z,70.23
2023-03-20T18:27:02.339Z,69.92
2023-03-20T18:29:31.447Z,69.98
2023-03-20T18:32:02.690Z,70.07
2023-03-20T18:34:32.808Z,69.99
2023-03-20T18:37:07.748Z,70.08
2023-03-20T18:39:36.388Z,69.83
2023-03-20T18:42:05.618Z,69.92
2023-03-20T18:44:34.101Z,69.75
2023-03-20T18:47:02.790Z,69.83
2023-03-20T18:49:38.952Z,70.36
2023-03-20T18:52:07.688Z,70.37
2023-03-20T18:54:36.508Z,70.55
2023-03-20T18:57:04.997Z,70.85
2023-03-20T18:59:33.515Z,70.87
2023-03-20T19:02:02.288Z,71.17
2023-03-20T19:04:32.956Z,70.96
2023-03-20T19:07:01.950Z,70.87
2023-03-20T19:09:30.510Z,70.76
2023-03-20T19:11:59.163Z,71.07
2023-03-20T19:14:27.716Z,71.27
2023-03-20T19:16:56.530Z,71.40
2023-03-20T19:19:25.367Z,71.33
2023-03-20T19:21:54.103Z,71.19
2023-03-20T19:24:23.566Z,71.49
2023-03-20T19:26:57.260Z,71.12
2023-03-20T19:29:25.669Z,71.14
2023-03-20T19:31:54.079Z,71.36
2023-03-20T19:34:57.729Z,71.26
2023-03-20T19:37:12.649Z,71.42
2023-03-20T19:39:41.107Z,71.59
2023-03-20T19:42:38.977Z,71.88
2023-03-20T19:44:58.220Z,72.26
2023-03-20T19:47:26.652Z,71.91
2023-03-20T19:49:54.988Z,72.23
2023-03-20T19:52:30.780Z,72.52
2023-03-20T19:55:03.213Z,72.67
2023-03-20T19:57:32.039Z,72.65
2023-03-20T20:02:49.105Z,72.67
2023-03-20T20:05:20.725Z,72.62
2023-03-20T20:08:17.116Z,72.95
2023-03-20T20:10:40.327Z,72.94
2023-03-20T20:13:14.636Z,73.03
2023-03-20T20:15:43.850Z,72.97
2023-03-20T20:18:13.564Z,73.04
2023-03-20T20:21:22.169Z,73.14
2023-03-20T20:23:31.813Z,73.63
2023-03-20T20:26:00.382Z,73.09
2023-03-20T20:28:29.134Z,73.14
2023-03-20T20:30:57.830Z,73.08
2023-03-20T20:33:28.847Z,73.15
2023-03-20T20:36:36.781Z,73.24
2023-03-20T20:38:51.486Z,73.23
2023-03-20T20:41:20.484Z,73.39
2023-03-20T20:44:14.716Z,73.05
2023-03-20T20:46:37.202Z,73.15
2023-03-20T20:49:18.459Z,72.74
2023-03-20T20:51:48.531Z,73.18
2023-03-20T20:54:17.429Z,73.12
2023-03-20T20:56:46.445Z,73.07
2023-03-20T20:59:15.000Z,73.20
2023-03-20T21:01:43.827Z,73.15
2023-03-20T21:04:12.726Z,73.30
2023-03-20T21:09:29.561Z,72.94
2023-03-20T21:11:58.028Z,73.34
2023-03-20T21:14:27.103Z,73.34
2023-03-20T21:17:01.194Z,73.29
2023-03-20T21:19:31.077Z,73.57
2023-03-20T21:21:59.495Z,73.39
2023-03-20T21:24:33.529Z,73.44
2023-03-20T21:27:04.317Z,73.43
2023-03-20T21:29:32.643Z,73.64
2023-03-20T21:32:01.203Z,73.57
2023-03-20T21:34:30.393Z,73.60
2023-03-20T21:37:00.163Z,73.50
2023-03-20T21:39:31.119Z,73.36
2023-03-20T21:41:59.676Z,73.20
2023-03-20T21:53:30.853Z,73.76
2023-03-20T21:56:40.123Z,73.51
2023-03-20T22:13:23.302Z,73.16
2023-03-20T22:16:17.128Z,73.23
2023-03-20T22:24:39.411Z,73.73
2023-03-20T22:30:30.809Z,74.32
2023-03-20T22:32:58.419Z,74.52
2023-03-20T22:41:36.162Z,74.71
2023-03-20T22:46:45.228Z,75.12
2023-03-20T22:49:09.619Z,75.23
2023-03-20T22:51:47.603Z,75.35
2023-03-20T22:54:26.730Z,75.16
2023-03-20T22:56:55.880Z,75.48
2023-03-20T22:59:24.532Z,75.82
2023-03-20T23:01:53.085Z,76.06
2023-03-20T23:04:21.499Z,75.79
2023-03-20T23:06:50.239Z,75.76
2023-03-20T23:09:18.856Z,76.05
2023-03-20T23:11:48.048Z,76.21
2023-03-20T23:14:23.625Z,76.54
2023-03-20T23:16:53.319Z,76.88
2023-03-20T23:19:21.919Z,76.92
2023-03-20T23:21:50.259Z,76.93
2023-03-20T23:24:18.614Z,76.56
2023-03-20T23:26:46.951Z,76.70
2023-03-20T23:29:15.476Z,76.82
2023-03-20T23:31:43.904Z,76.63
2023-03-20T23:34:12.372Z,76.64
2023-03-20T23:36:40.860Z,76.56
2023-03-20T23:39:11.404Z,76.44
2023-03-20T23:44:28.316Z,76.48
2023-03-20T23:46:56.661Z,76.46
2023-03-20T23:49:25.189Z,76.53
2023-03-20T23:51:53.738Z,76.45
2023-03-20T23:54:24.195Z,76.45
2023-03-20T23:56:52.645Z,76.62
2023-03-20T23:59:21.875Z,76.16
